Latest Weather Observations for The Monument

IDQ60801

Issued at 12:02 pm EST Thursday 1 October 2020 (issued every 10 minutes, with the page automatically refreshed every 10 minutes)

About weather observations | Map of weather stations | Latest weather observations for QLD | Other Formats
Station Details ID: 037034 Name: THE MONUMENT AIRPORT Lat: -21.81 Lon: 139.93 Height: 288.4 m
Data from the previous 72 hours. | See also: Recent months at The Monument
Date/Time
EST
Temp
°C
App
Temp
°C
Dew
Point
°C
Rel
Hum
%
Delta-T
°C
Wind Press
QNH
hPa
Press
MSL
hPa
Rain since
9am
mm
Dir  Spd
km/h
Gust
km/h
Spd
kts
Gust
kts
01/11:30am 29.4 23.8 1.0 16 13.9 SSE 20 33 11 18 1018.4 1016.7 0.0
01/11:00am 28.8 22.7 0.5 16 13.7 SSE 22 33 12 18 1018.8 1017.1 0.0
01/10:30am 28.2 21.8 0.9 17 13.3 SE 24 33 13 18 1018.9 1017.2 0.0
01/10:00am 27.0 19.8 0.7 18 12.6 SE 28 39 15 21 1019.1 1017.4 0.0
01/09:30am 26.1 18.9 0.7 19 12.1 SE 28 41 15 22 1019.4 1018.2 0.0
01/09:00am 24.9 18.0 0.4 20 11.5 SE 26 35 14 19 1019.5 1018.3 0.0
01/08:30am 23.8 17.8 0.8 22 10.8 SE 22 30 12 16 1019.2 1018.0 0.0
01/08:00am 22.1 16.7 1.2 25 9.7 SE 19 32 10 17 1018.8 1017.6 0.0
01/07:30am 20.4 16.5 1.3 28 8.8 SSE 11 17 6 9 1018.3 1017.1 0.0
01/07:00am 18.4 14.5 1.4 32 7.7 S 11 13 6 7 1018.0 1016.8 0.0
01/06:30am 17.5 13.2 1.1 33 7.4 S 13 15 7 8 1017.5 1016.3 0.0
01/06:00am 17.6 14.1 1.2 33 7.4 S 9 11 5 6 1017.0 1015.7 0.0
01/05:30am 18.2 15.1 1.3 32 7.7 S 7 11 4 6 1016.6 1015.4 0.0
01/05:00am 19.1 15.2 1.1 30 8.2 S 11 15 6 8 1016.1 1014.9 0.0
01/04:30am 20.0 15.8 1.4 29 8.6 SSE 13 17 7 9 1016.0 1014.8 0.0
01/04:00am 20.7 16.6 2.0 29 8.8 S 13 20 7 11 1015.6 1014.4 0.0
01/03:30am 21.1 16.9 1.9 28 9.0 S 13 22 7 12 1015.6 1014.4 0.0
01/03:00am 21.7 16.8 1.9 27 9.3 S 17 22 9 12 1015.5 1014.3 0.0
01/02:30am 22.2 16.9 2.8 28 9.3 S 20 30 11 16 1015.6 1014.4 0.0
01/02:00am 22.1 18.2 3.3 29 9.1 S 13 20 7 11 1015.6 1014.4 0.0
01/01:30am 23.0 18.3 3.0 27 9.7 S 17 24 9 13 1015.6 1014.4 0.0
01/01:00am 23.7 19.0 3.1 26 10.1 S 17 24 9 13 1015.6 1014.4 0.0
01/12:30am 24.4 19.3 3.1 25 10.5 S 19 28 10 15 1015.6 1014.4 0.0
01/12:00am 25.1 20.0 3.1 24 10.9 S 19 28 10 15 1015.5 1014.3 0.0
 
Date/Time
EST
Temp
°C
App
Temp
°C
Dew
Point
°C
Rel
Hum
%
Delta-T
°C
Wind Press
QNH
hPa
Press
MSL
hPa
Rain since
9am
mm
Dir  Spd
km/h
Gust
km/h
Spd
kts
Gust
kts
30/11:30pm 24.9 20.4 2.4 23 11.0 S 15 19 8 10 1015.4 1014.2 0.0
30/11:00pm 25.4 21.0 2.8 23 11.1 S 15 20 8 11 1015.3 1014.1 0.0
30/10:30pm 25.6 21.5 2.3 22 11.4 S 13 17 7 9 1015.3 1014.1 0.0
30/10:00pm 25.6 21.4 1.7 21 11.6 S 13 15 7 8 1015.1 1013.9 0.0
30/09:30pm 25.5 22.1 1.6 21 11.5 S 9 9 5 5 1014.8 1013.6 0.0
30/09:00pm 26.7 23.2 1.2 19 12.3 S 9 13 5 7 1014.5 1013.3 0.0
30/08:30pm 27.7 23.8 1.2 18 12.9 S 11 13 6 7 1014.2 1012.9 0.0
30/08:00pm 28.6 24.7 1.2 17 13.4 S 11 13 6 7 1013.6 1012.3 0.0
30/07:30pm 30.1 25.4 0.6 15 14.4 S 15 17 8 9 1013.1 1011.8 0.0
30/07:00pm 31.1 26.3 0.5 14 15.1 S 15 17 8 9 1012.4 1011.2 0.0
30/06:30pm 32.4 27.3 0.5 13 15.8 S 17 20 9 11 1011.9 1010.7 0.0
30/06:00pm 33.6 28.6 1.4 13 16.3 S 17 24 9 13 1011.6 1010.4 0.0
30/05:30pm 34.2 28.7 0.8 12 16.8 SSW 19 24 10 13 1011.4 1010.2 0.0
30/05:00pm 34.5 29.4 1.0 12 17.0 SSW 17 28 9 15 1011.2 1009.9 0.0
30/04:30pm 35.3 29.4 1.6 12 17.3 SSW 22 32 12 17 1011.2 1009.9 0.0
30/04:00pm 35.2 29.7 0.3 11 17.6 S 19 35 10 19 1011.1 1009.8 0.0
30/03:30pm 36.0 30.5 0.9 11 17.9 SSW 19 28 10 15 1011.1 1009.8 0.0
30/03:00pm 35.7 31.2 1.9 12 17.5 SSW 15 28 8 15 1011.2 1009.9 0.0
30/02:30pm 35.6 29.1 0.6 11 17.7 SSW 24 32 13 17 1011.6 1010.4 0.0
30/02:00pm 35.2 31.6 0.3 11 17.6 SE 9 17 5 9 1011.9 1010.7 0.0
30/01:30pm 34.9 30.8 0.1 11 17.4 ESE 11 20 6 11 1012.2 1011.0 0.0
30/01:00pm 35.7 31.5 1.9 12 17.5 SSE 13 20 7 11 1012.7 1011.5 0.0
30/12:30pm 35.1 30.9 1.5 12 17.2 SSE 13 26 7 14 1013.2 1011.9 0.0
30/12:00pm 34.4 29.5 -0.3 11 17.2 S 15 22 8 12 1013.6 1012.3 0.0
30/11:30am 34.0 29.6 0.6 12 16.8 SE 13 22 7 12 1013.9 1012.6 0.0
30/11:00am 34.0 30.4 0.6 12 16.8 ESE 9 17 5 9 1014.0 1012.7 0.0
30/10:30am 34.0 30.2 1.7 13 16.5 E 11 17 6 9 1014.2 1012.9 0.0
30/10:00am 32.9 29.3 0.9 13 16.0 ESE 9 15 5 8 1014.3 1013.0 0.0
30/09:30am 30.9 27.6 0.3 14 15.0 N 7 11 4 6 1014.3 1013.0 0.0
30/09:00am 28.6 25.0 0.3 16 13.6 N 9 13 5 7 1014.5 1013.3 0.0
30/08:30am 26.7 23.1 0.4 18 12.5 NNE 9 13 5 7 1014.4 1013.2 0.0
30/08:00am 24.4 20.8 0.7 21 11.2 NNW 9 13 5 7 1014.2 1012.9 0.0
30/07:30am 20.5 17.7 1.9 29 8.7 NNW 6 9 3 5 1013.7 1012.4 0.0
30/07:00am 18.0 14.3 0.2 30 7.9 NW 9 9 5 5 1013.3 1012.0 0.0
30/06:30am 17.1 13.7 -0.6 30 7.6 NNW 7 9 4 5 1012.9 1011.7 0.0
30/06:00am 16.2 12.8 -0.9 31 7.3 NNW 7 9 4 5 1012.5 1011.3 0.0
30/05:30am 17.8 14.4 -0.5 29 8.0 NNW 7 9 4 5 1012.2 1011.0 0.0
30/05:00am 17.2 15.1 -1.0 29 7.8 CALM 0 0 0 0 1012.1 1010.9 0.0
30/04:30am 18.1 16.0 -0.7 28 8.2 CALM 0 0 0 0 1012.0 1010.8 0.0
30/04:00am 19.1 16.9 -1.9 24 9.0 CALM 0 0 0 0 1011.8 1010.6 0.0
30/03:30am 21.7 19.4 -2.2 20 10.4 CALM 0 0 0 0 1011.9 1010.7 0.0
30/03:00am 22.7 18.6 -2.8 18 11.1 SSW 9 13 5 7 1012.0 1010.8 0.0
30/02:30am 23.4 18.5 -3.0 17 11.5 ESE 13 17 7 9 1011.8 1010.6 0.0
30/02:00am 23.5 18.6 -3.7 16 11.7 SSE 13 17 7 9 1013.3 1012.0 0.0
30/01:30am 23.6 18.3 -3.7 16 11.8 S 15 24 8 13 1013.6 1012.3 0.0
30/01:00am 24.0 18.2 -4.2 15 12.1 S 17 26 9 14 1014.0 1012.7 0.0
30/12:30am 24.5 17.8 -3.8 15 12.3 S 22 32 12 17 1014.1 1012.8 0.0
30/12:00am 24.7 18.0 -4.6 14 12.5 S 22 30 12 16 1014.3 1013.0 0.0
 
Date/Time
EST
Temp
°C
App
Temp
°C
Dew
Point
°C
Rel
Hum
%
Delta-T
°C
Wind Press
QNH
hPa
Press
MSL
hPa
Rain since
9am
mm
Dir  Spd
km/h
Gust
km/h
Spd
kts
Gust
kts
29/11:30pm 21.7 18.1 0.8 25 9.7 W 9 20 5 11 1014.3 1013.0 0.0
29/11:00pm 21.6 18.8 2.3 28 9.2 NNW 6 9 3 5 1013.8 1012.5 0.0
29/10:30pm 22.2 20.3 0.7 24 10.0 CALM 0 0 0 0 1013.7 1012.4 0.0
29/10:00pm 21.5 19.8 1.7 27 9.3 CALM 0 0 0 0 1013.5 1012.2 0.0
29/09:30pm 22.4 20.5 0.3 23 10.2 CALM 0 0 0 0 1013.2 1011.9 0.0
29/09:00pm 23.2 21.2 -0.3 21 10.8 CALM 0 0 0 0 1012.9 1011.7 0.0
29/08:30pm 24.5 22.4 -0.6 19 11.5 CALM 0 0 0 0 1012.6 1011.4 0.0
29/08:00pm 25.0 22.9 -0.9 18 11.9 CALM 0 0 0 0 1012.4 1011.2 0.0
29/07:30pm 27.6 25.1 -4.3 12 14.1 CALM 0 0 0 0 1012.2 1011.0 0.0
29/07:00pm 30.8 27.2 -1.9 12 15.4 SSW 7 9 4 5 1011.8 1010.6 0.0
29/06:30pm 32.5 29.7 -3.0 10 16.6 ESE 2 7 1 4 1011.5 1010.3 0.0
29/06:00pm 33.7 30.9 -3.5 9 17.4 NNW 2 7 1 4 1011.1 1009.8 0.0
29/05:30pm 35.4 31.2 -3.8 8 18.5 W 9 13 5 7 1010.8 1009.5 0.0
29/05:00pm 35.0 29.3 -4.1 8 18.3 W 17 22 9 12 1010.7 1009.4 0.0
29/04:30pm 35.8 30.9 -3.5 8 18.7 NW 13 20 7 11 1010.7 1009.4 0.0
29/04:00pm 35.2 29.9 -4.0 8 18.4 NW 15 26 8 14 1010.8 1009.5 0.0
29/03:30pm 35.4 29.9 -2.3 9 18.2 NNW 17 24 9 13 1011.0 1009.7 0.0
29/03:00pm 34.8 29.2 -2.7 9 17.9 WNW 17 20 9 11 1011.3 1010.0 0.0
29/02:30pm 35.2 29.7 -2.4 9 18.1 WNW 17 28 9 15 1011.7 1010.5 0.0
29/02:00pm 35.1 30.3 -2.5 9 18.1 NNW 13 24 7 13 1012.2 1011.0 0.0
29/01:30pm 34.6 29.8 -2.9 9 17.8 NNE 13 24 7 13 1012.7 1011.5 0.0
29/01:00pm 34.5 29.8 -1.5 10 17.5 N 13 22 7 12 1013.6 1012.3 0.0
29/12:30pm 33.1 27.9 -2.6 10 16.9 NNE 15 22 8 12 1014.4 1013.2 0.0
29/12:00pm 33.8 29.1 -2.0 10 17.2 NE 13 24 7 13 1015.0 1013.8 0.0
29/11:30am 32.4 26.9 -1.8 11 16.3 NE 17 26 9 14 1015.6 1014.4 0.0
29/11:00am 31.2 25.2 -2.7 11 15.8 NNE 19 26 10 14 1016.1 1014.9 0.0
29/10:30am 29.7 24.1 -2.7 12 14.9 NNE 17 26 9 14 1016.4 1015.2 0.0
29/10:00am 28.2 22.1 -3.9 12 14.3 NNE 19 26 10 14 1016.9 1015.6 0.0
29/09:30am 28.0 22.8 -3.0 13 14.0 NE 15 20 8 11 1017.1 1015.8 0.0
29/09:00am 26.1 20.0 -3.5 14 13.0 NE 19 30 10 16 1017.2 1015.9 0.0
29/08:30am 24.4 18.0 -4.8 14 12.4 NE 20 26 11 14 1017.0 1015.7 0.0
29/08:00am 22.4 18.2 -3.8 17 11.1 NE 9 20 5 11 1016.5 1015.3 0.0
29/07:30am 18.5 15.1 -2.4 24 8.8 NNE 6 7 3 4 1016.2 1015.0 0.0
29/07:00am 16.0 12.3 -3.0 27 7.7 ENE 7 9 4 5 1015.9 1014.7 0.0
29/06:30am 14.2 9.7 -3.1 30 6.9 NE 11 13 6 7 1015.8 1014.6 0.0
29/06:00am 13.9 9.8 -3.4 30 6.8 NE 9 11 5 6 1015.6 1014.4 0.0
29/05:30am 13.2 10.9 -2.7 33 6.3 CALM 0 0 0 0 1015.3 1014.1 0.0
29/05:00am 14.1 11.7 -2.8 31 6.8 CALM 0 0 0 0 1015.1 1013.9 0.0
29/04:30am 14.0 11.1 -1.2 35 6.3 SE 4 9 2 5 1015.0 1013.8 0.0
29/04:00am 14.8 11.8 -2.1 31 6.9 ESE 4 6 2 3 1015.1 1013.9 0.0
29/03:30am 15.2 12.5 -2.7 29 7.3 SE 2 6 1 3 1015.3 1014.1 0.0
29/03:00am 14.6 11.1 -2.8 30 7.0 SE 6 9 3 5 1015.5 1014.3 0.0
29/02:30am 16.8 12.9 -5.0 22 8.6 SE 7 9 4 5 1015.6 1014.4 0.0
29/02:00am 17.0 12.6 -5.5 21 8.7 SE 9 11 5 6 1015.9 1014.7 0.0
29/01:30am 17.6 13.3 -5.0 21 8.9 SE 9 13 5 7 1016.4 1015.2 0.0
29/01:00am 17.9 13.9 -5.3 20 9.1 NE 7 9 4 5 1017.0 1015.7 0.0
29/12:30am 18.6 14.2 -6.2 18 9.7 ESE 9 11 5 6 1017.2 1015.9 0.0
29/12:00am 19.5 15.6 -6.2 17 10.1 ESE 6 9 3 5 1017.4 1016.1 0.0
 
Date/Time
EST
Temp
°C
App
Temp
°C
Dew
Point
°C
Rel
Hum
%
Delta-T
°C
Wind Press
QNH
hPa
Press
MSL
hPa
Rain since
9am
mm
Dir  Spd
km/h
Gust
km/h
Spd
kts
Gust
kts
28/11:30pm 20.8 15.6 -6.7 15 10.9 SE 13 17 7 9 1017.5 1016.3 0.0
28/11:00pm 21.9 16.6 -6.8 14 11.4 SE 13 17 7 9 1017.6 1016.4 0.0
28/10:30pm 22.4 17.1 -7.3 13 11.8 SE 13 17 7 9 1017.3 1016.0 0.0
28/10:00pm 22.3 17.1 -6.5 14 11.6 SE 13 17 7 9 1017.5 1016.3 0.0
28/09:30pm 21.8 16.9 -6.8 14 11.4 SE 11 13 6 7 1017.4 1016.1 0.0
28/09:00pm 22.0 17.6 -5.8 15 11.3 ESE 9 11 5 6 1017.1 1015.8 0.0
28/08:30pm 22.7 18.3 -6.1 14 11.7 SE 9 11 5 6 1016.9 1015.6 0.0
28/08:00pm 23.6 19.0 -7.4 12 12.4 SE 9 13 5 7 1016.6 1015.4 0.0
28/07:30pm 25.2 19.9 -7.3 11 13.3 SSE 13 15 7 8 1016.3 1015.1 0.0
28/07:00pm 26.3 21.1 -6.5 11 13.7 SE 13 15 7 8 1016.1 1014.9 0.0
28/06:30pm 28.5 22.8 -7.4 9 15.1 SE 15 20 8 11 1015.7 1014.5 0.0
28/06:00pm 30.1 24.5 -6.2 9 15.8 SE 15 20 8 11 1015.4 1014.2 0.0
28/05:30pm 30.6 24.9 -7.4 8 16.3 SE 15 20 8 11 1015.2 1014.0 0.0
28/05:00pm 31.2 24.9 -5.4 9 16.3 SE 19 32 10 17 1015.1 1013.9 0.0
28/04:30pm 31.8 25.2 -6.5 8 16.8 SE 20 28 11 15 1015.3 1014.1 0.0
28/04:00pm 31.9 25.9 -6.4 8 16.8 ESE 17 26 9 14 1015.3 1014.1 0.0
28/03:30pm 31.1 25.1 -7.0 8 16.5 ESE 17 26 9 14 1015.6 1014.4 0.0
28/03:00pm 31.1 25.6 -5.5 9 16.2 SSE 15 24 8 13 1016.0 1014.8 0.0
28/02:30pm 31.7 26.2 -5.0 9 16.5 ESE 15 24 8 13 1016.4 1015.2 0.0
28/02:00pm 31.1 26.4 -5.5 9 16.2 ESE 11 20 6 11 1016.9 1015.6 0.0
28/01:30pm 30.7 25.0 -7.3 8 16.3 ESE 15 28 8 15 1017.5 1016.3 0.0
28/01:00pm 30.5 25.9 -4.5 10 15.7 ESE 11 20 6 11 1018.0 1016.8 0.0
28/12:30pm 29.1 24.5 -4.3 11 14.9 E 11 20 6 11 1018.5 1017.3 0.0

Other formats

Comma delimited format used in spreadsheet applications
http://www.bom.gov.au/fwo/IDQ60801/IDQ60801.94336.axf

JavaScript Object Notation format (JSON) in row-major order
http://www.bom.gov.au/fwo/IDQ60801/IDQ60801.94336.json

Data quality

Most of these data are generated automatically and are frequently updated. Quality checks on data are not normally performed. It is possible for incorrect values to appear. Refer to information at About Latest Weather Observations and please check the disclaimer before using these data.